Time;durP1;ratioP1;P1;durP2;ratioP2;P2;SDS_P1;SDS_P2;PMS_P1;PMS_P2;Temp;Humidity;BMP_temperature;BMP_pressure;BME280_temperature;BME280_humidity;BME280_pressure;Samples;Min_cycle;Max_cycle;Signal;HPM_P1;HPM_P2
2021/09/11 00:00:20;;;;;;;107.33;56.00;;;18.40;99.90;;;;;;4993415;28;20124;-71
2021/09/11 00:02:47;;;;;;;104.63;54.57;;;18.40;99.90;;;;;;4995233;28;20204;-72
2021/09/11 00:05:14;;;;;;;127.93;55.50;;;18.40;99.90;;;;;;4992911;28;20042;-71
2021/09/11 00:07:40;;;;;;;106.57;54.97;;;18.40;99.90;;;;;;4995585;28;20053;-71
2021/09/11 00:10:07;;;;;;;118.27;55.93;;;18.40;99.90;;;;;;4995101;28;20034;-72
2021/09/11 00:12:35;;;;;;;119.03;57.60;;;18.30;99.90;;;;;;4994113;28;20074;-71
2021/09/11 00:15:08;;;;;;;119.20;57.37;;;18.30;99.90;;;;;;4994161;28;20384;-71
2021/09/11 00:17:34;;;;;;;130.37;57.23;;;18.40;99.90;;;;;;4994297;28;20124;-71
2021/09/11 00:20:00;;;;;;;118.57;56.13;;;18.30;99.90;;;;;;4993631;28;20085;-71
2021/09/11 00:22:25;;;;;;;138.57;55.70;;;18.30;99.90;;;;;;4994341;28;20050;-73
2021/09/11 00:24:51;;;;;;;167.60;56.67;;;18.40;99.90;;;;;;4992832;28;20054;-71
2021/09/11 00:27:16;;;;;;;135.33;54.70;;;18.40;99.90;;;;;;4994729;28;20042;-70
2021/09/11 00:29:42;;;;;;;88.07;44.97;;;18.40;99.90;;;;;;4993497;28;20368;-69
2021/09/11 00:32:08;;;;;;;98.70;46.77;;;18.40;99.90;;;;;;4993395;28;20129;-70
2021/09/11 00:34:34;;;;;;;75.30;38.33;;;18.40;99.90;;;;;;4994709;28;20101;-70
2021/09/11 00:37:00;;;;;;;66.80;36.30;;;18.40;99.90;;;;;;4992919;28;20066;-70
2021/09/11 00:39:25;;;;;;;56.87;34.07;;;18.50;99.90;;;;;;4992363;28;20074;-70
2021/09/11 00:41:52;;;;;;;54.20;33.77;;;18.50;99.90;;;;;;4994468;28;20154;-70
2021/09/11 00:44:17;;;;;;;59.27;33.53;;;18.50;99.90;;;;;;4992870;28;20065;-70
2021/09/11 00:46:43;;;;;;;54.13;32.70;;;18.50;99.90;;;;;;4993396;28;20078;-70
2021/09/11 00:49:09;;;;;;;56.47;32.33;;;18.40;99.90;;;;;;4993962;28;20039;-70
2021/09/11 00:51:36;;;;;;;59.73;31.77;;;18.50;99.90;;;;;;4994134;28;20050;-69
2021/09/11 00:54:02;;;;;;;62.80;32.97;;;18.50;99.90;;;;;;4993361;28;20112;-70
2021/09/11 00:56:30;;;;;;;51.90;29.53;;;18.50;99.90;;;;;;4992735;28;20201;-71
2021/09/11 00:58:55;;;;;;;47.03;29.17;;;18.50;99.90;;;;;;4992673;28;20039;-70
2021/09/11 01:01:21;;;;;;;29.33;22.33;;;18.50;99.90;;;;;;4993154;28;20050;-71
2021/09/11 01:03:47;;;;;;;27.40;21.53;;;18.50;99.90;;;;;;4994111;28;20050;-70
2021/09/11 01:06:13;;;;;;;36.47;24.80;;;18.40;99.90;;;;;;4993555;28;20395;-70
2021/09/11 01:08:40;;;;;;;43.40;27.37;;;18.40;99.90;;;;;;4993250;28;20329;-70
2021/09/11 01:11:07;;;;;;;31.27;23.77;;;18.30;99.90;;;;;;4992483;28;20046;-70
2021/09/11 01:13:33;;;;;;;34.80;23.70;;;18.30;99.90;;;;;;4994039;28;20043;-70
2021/09/11 01:15:59;;;;;;;33.50;23.27;;;18.20;99.90;;;;;;4991762;28;20049;-69
2021/09/11 01:18:26;;;;;;;33.40;24.43;;;18.20;99.90;;;;;;4993601;28;20038;-70
2021/09/11 01:20:53;;;;;;;35.30;24.30;;;18.20;99.90;;;;;;4991885;28;20060;-70
2021/09/11 01:23:19;;;;;;;34.03;24.17;;;18.20;99.90;;;;;;4993522;28;20097;-70
2021/09/11 01:25:46;;;;;;;35.00;24.57;;;18.20;99.90;;;;;;4992094;28;20053;-69
2021/09/11 01:28:11;;;;;;;32.17;23.60;;;18.10;99.90;;;;;;4992938;28;20042;-70
2021/09/11 01:30:37;;;;;;;28.83;23.17;;;18.10;99.90;;;;;;4993620;28;20042;-70
2021/09/11 01:33:03;;;;;;;34.50;24.10;;;18.10;99.90;;;;;;4993471;28;20081;-69
2021/09/11 01:35:28;;;;;;;31.60;23.67;;;18.00;99.90;;;;;;4990879;28;20062;-70
2021/09/11 01:37:54;;;;;;;29.37;22.13;;;18.00;99.90;;;;;;4992096;28;20050;-69
2021/09/11 01:40:21;;;;;;;46.00;25.67;;;18.00;99.90;;;;;;4991553;28;20049;-69
2021/09/11 01:42:46;;;;;;;34.53;25.53;;;18.00;99.90;;;;;;4992657;28;20043;-70
2021/09/11 01:45:14;;;;;;;38.00;27.07;;;17.90;99.90;;;;;;4993045;28;20373;-69
2021/09/11 01:47:40;;;;;;;42.07;27.20;;;17.90;99.90;;;;;;4991778;28;20038;-69
2021/09/11 01:50:09;;;;;;;45.83;28.60;;;18.00;99.90;;;;;;4992361;28;20046;-70
2021/09/11 01:52:34;;;;;;;45.03;28.67;;;17.90;99.90;;;;;;4993014;28;20069;-70
2021/09/11 01:55:00;;;;;;;46.40;29.33;;;17.90;99.90;;;;;;4993247;28;20047;-69
2021/09/11 01:57:27;;;;;;;48.80;29.23;;;17.90;99.90;;;;;;4992196;28;20067;-69
2021/09/11 01:59:52;;;;;;;47.10;29.97;;;17.90;99.90;;;;;;4992013;28;20081;-69
2021/09/11 02:02:18;;;;;;;49.83;29.77;;;17.90;99.90;;;;;;4991659;28;20070;-69
2021/09/11 02:04:44;;;;;;;50.53;30.07;;;17.80;99.90;;;;;;4992210;28;20066;-69
2021/09/11 02:07:09;;;;;;;56.77;32.67;;;17.80;99.90;;;;;;4991114;28;20038;-69
2021/09/11 02:09:36;;;;;;;64.43;33.40;;;17.80;99.90;;;;;;4992785;28;20042;-69
2021/09/11 02:12:02;;;;;;;62.63;34.37;;;17.80;99.90;;;;;;4992371;28;20451;-70
2021/09/11 02:14:27;;;;;;;62.67;35.17;;;17.80;99.90;;;;;;4992676;28;20046;-69
2021/09/11 02:16:53;;;;;;;69.03;36.60;;;17.80;99.90;;;;;;4992834;28;20046;-69
2021/09/11 02:19:19;;;;;;;69.17;37.33;;;17.80;99.90;;;;;;4992253;28;20380;-69
2021/09/11 02:21:45;;;;;;;73.93;38.07;;;17.80;99.90;;;;;;4992707;28;20042;-70
2021/09/11 02:24:11;;;;;;;74.83;40.40;;;17.90;99.90;;;;;;4990849;28;20487;-70
2021/09/11 02:26:36;;;;;;;72.80;37.53;;;17.80;99.90;;;;;;4991384;28;20061;-70
2021/09/11 02:29:03;;;;;;;78.80;40.57;;;17.90;99.90;;;;;;4992733;28;20562;-69
2021/09/11 02:31:29;;;;;;;77.43;40.70;;;17.80;99.90;;;;;;4991546;28;20373;-70
2021/09/11 02:33:54;;;;;;;75.83;42.20;;;17.80;99.90;;;;;;4991779;28;20049;-70
2021/09/11 02:36:20;;;;;;;85.97;43.57;;;17.80;99.90;;;;;;4992077;28;20061;-70
2021/09/11 02:38:46;;;;;;;83.17;43.07;;;17.80;99.90;;;;;;4991774;28;20638;-70
2021/09/11 02:41:12;;;;;;;88.47;44.37;;;17.80;99.90;;;;;;4991396;28;20137;-70
2021/09/11 02:43:38;;;;;;;87.10;44.77;;;17.80;99.90;;;;;;4991492;28;20065;-70
2021/09/11 02:46:03;;;;;;;92.77;43.70;;;17.80;99.90;;;;;;4990684;28;20070;-70
2021/09/11 02:48:29;;;;;;;88.60;43.30;;;17.80;99.90;;;;;;4992184;28;20044;-69
2021/09/11 02:50:55;;;;;;;86.90;46.47;;;17.80;99.90;;;;;;4992165;28;20130;-70
2021/09/11 02:53:20;;;;;;;84.53;44.20;;;17.80;99.90;;;;;;4991875;28;20043;-70
2021/09/11 02:55:46;;;;;;;90.13;47.00;;;17.80;99.90;;;;;;4992447;28;20050;-70
2021/09/11 02:58:11;;;;;;;89.80;46.90;;;17.80;99.90;;;;;;4992376;28;20054;-71
2021/09/11 03:00:37;;;;;;;93.80;47.73;;;17.80;99.90;;;;;;4993220;28;20396;-71
2021/09/11 03:03:03;;;;;;;106.80;49.33;;;17.80;99.90;;;;;;4996157;28;20374;-70
2021/09/11 03:05:28;;;;;;;92.23;48.40;;;17.90;99.90;;;;;;4995679;28;20050;-70
2021/09/11 03:07:54;;;;;;;96.90;47.67;;;17.80;99.90;;;;;;4995512;28;20050;-69
2021/09/11 03:10:19;;;;;;;98.63;51.70;;;17.90;99.90;;;;;;4995909;28;20050;-70
2021/09/11 03:12:45;;;;;;;95.97;49.13;;;17.90;99.90;;;;;;4996168;28;20553;-70
2021/09/11 03:15:12;;;;;;;98.83;48.90;;;17.80;99.90;;;;;;4995103;28;20053;-70
2021/09/11 03:17:38;;;;;;;92.43;48.77;;;17.90;99.90;;;;;;4994553;28;20039;-70
2021/09/11 03:20:04;;;;;;;98.30;49.67;;;17.80;99.90;;;;;;4996099;28;20073;-70
2021/09/11 03:22:29;;;;;;;97.73;48.87;;;17.80;99.90;;;;;;4993477;28;20047;-70
2021/09/11 03:24:55;;;;;;;92.97;49.23;;;17.80;99.90;;;;;;4995955;28;20046;-70
2021/09/11 03:27:21;;;;;;;91.50;50.87;;;17.80;99.90;;;;;;4995087;28;20057;-70
2021/09/11 03:29:46;;;;;;;82.07;46.33;;;17.80;99.90;;;;;;4994776;28;20069;-70
2021/09/11 03:32:12;;;;;;;92.20;49.07;;;17.80;99.90;;;;;;4995529;28;20061;-70
2021/09/11 03:34:38;;;;;;;85.33;47.37;;;17.80;99.90;;;;;;4994903;28;20042;-70
2021/09/11 03:37:04;;;;;;;101.37;48.57;;;17.80;99.90;;;;;;4995483;28;20054;-70
2021/09/11 03:39:29;;;;;;;80.27;47.50;;;17.80;99.90;;;;;;4994438;28;20116;-71
2021/09/11 03:41:55;;;;;;;89.17;48.37;;;17.80;99.90;;;;;;4994885;28;20392;-70
2021/09/11 03:44:21;;;;;;;82.30;46.87;;;17.80;99.90;;;;;;4995331;28;20043;-71
2021/09/11 03:46:46;;;;;;;79.57;48.27;;;17.80;99.90;;;;;;4995215;28;20125;-70
2021/09/11 03:49:12;;;;;;;88.40;48.77;;;17.80;99.90;;;;;;4994538;28;20492;-70
2021/09/11 03:51:37;;;;;;;94.57;48.43;;;17.80;99.90;;;;;;4994672;28;20046;-70
2021/09/11 03:54:03;;;;;;;78.47;45.07;;;17.80;99.90;;;;;;4995194;28;20491;-70
2021/09/11 03:56:29;;;;;;;73.10;45.60;;;17.80;99.90;;;;;;4994232;28;20042;-70
2021/09/11 03:58:55;;;;;;;76.77;45.67;;;17.80;99.90;;;;;;4995459;28;20129;-70
2021/09/11 04:01:21;;;;;;;82.40;46.40;;;17.80;99.90;;;;;;4994732;28;20452;-70
2021/09/11 04:03:47;;;;;;;71.83;42.43;;;17.80;99.90;;;;;;4994331;28;20045;-70
2021/09/11 04:06:12;;;;;;;78.33;43.70;;;17.70;99.90;;;;;;4994789;28;20130;-70
2021/09/11 04:08:38;;;;;;;73.13;43.57;;;17.70;99.90;;;;;;4994471;28;20128;-70
2021/09/11 04:11:04;;;;;;;69.03;42.47;;;17.70;99.90;;;;;;4993896;28;20054;-70
2021/09/11 04:13:30;;;;;;;73.80;42.57;;;17.60;99.90;;;;;;4993417;28;20046;-70
2021/09/11 04:15:56;;;;;;;71.50;42.73;;;17.60;99.90;;;;;;4995163;28;20042;-70
2021/09/11 04:18:22;;;;;;;72.97;41.13;;;17.60;99.90;;;;;;4993893;28;20046;-70
2021/09/11 04:20:48;;;;;;;63.17;39.47;;;17.60;99.90;;;;;;4994053;28;20099;-70
2021/09/11 04:23:13;;;;;;;61.97;39.53;;;17.60;99.90;;;;;;4993376;28;20073;-71
2021/09/11 04:25:39;;;;;;;60.10;36.73;;;17.60;99.90;;;;;;4992896;28;20165;-71
2021/09/11 04:28:04;;;;;;;64.03;37.33;;;17.50;99.90;;;;;;4994579;28;20050;-71
2021/09/11 04:30:30;;;;;;;60.30;36.67;;;17.50;99.90;;;;;;4994337;28;20049;-71
2021/09/11 04:32:56;;;;;;;53.67;33.23;;;17.50;99.90;;;;;;4993691;28;20043;-71
2021/09/11 04:35:21;;;;;;;56.73;33.07;;;17.50;99.90;;;;;;4992776;28;20057;-71
2021/09/11 04:37:47;;;;;;;51.43;32.70;;;17.50;99.90;;;;;;4993895;28;20078;-70
2021/09/11 04:40:13;;;;;;;56.83;34.53;;;17.50;99.90;;;;;;4994041;28;20042;-71
2021/09/11 04:42:39;;;;;;;45.97;31.80;;;17.40;99.90;;;;;;4993534;28;20082;-71
2021/09/11 04:45:05;;;;;;;50.20;32.23;;;17.40;99.90;;;;;;4993619;28;20518;-70
2021/09/11 04:47:30;;;;;;;50.40;30.37;;;17.40;99.90;;;;;;4992712;28;20046;-70
2021/09/11 04:49:56;;;;;;;46.70;30.20;;;17.30;99.90;;;;;;4992966;28;20440;-70
2021/09/11 04:52:22;;;;;;;47.17;28.80;;;17.30;99.90;;;;;;4993505;28;20134;-70
2021/09/11 04:54:47;;;;;;;45.33;26.83;;;17.30;99.90;;;;;;4994297;28;20046;-70
2021/09/11 04:57:13;;;;;;;40.93;25.83;;;17.30;99.90;;;;;;4992714;28;20046;-71
2021/09/11 04:59:39;;;;;;;43.57;27.23;;;17.30;99.90;;;;;;4993421;28;20049;-70
2021/09/11 05:02:04;;;;;;;38.03;25.30;;;17.30;99.90;;;;;;4991962;28;20046;-70
2021/09/11 05:04:30;;;;;;;37.33;24.97;;;17.20;99.90;;;;;;4993058;28;20136;-70
2021/09/11 05:06:57;;;;;;;42.87;24.30;;;17.20;99.90;;;;;;4992998;28;20049;-70
2021/09/11 05:09:23;;;;;;;35.63;23.73;;;17.10;99.90;;;;;;4994284;28;20413;-70
2021/09/11 05:11:49;;;;;;;35.13;24.37;;;17.10;99.90;;;;;;4994601;28;20042;-70
2021/09/11 05:14:14;;;;;;;36.07;23.60;;;17.10;99.90;;;;;;4993678;28;20101;-71
2021/09/11 05:16:40;;;;;;;41.03;25.33;;;17.00;99.90;;;;;;4993747;28;20061;-71
2021/09/11 05:19:05;;;;;;;39.67;23.43;;;17.00;99.90;;;;;;4992191;28;20470;-71
2021/09/11 05:21:31;;;;;;;33.40;22.00;;;16.90;99.90;;;;;;4992872;28;20368;-72
2021/09/11 05:23:58;;;;;;;39.00;23.67;;;16.90;99.90;;;;;;4993004;28;20542;-71
2021/09/11 05:26:24;;;;;;;36.67;23.37;;;16.90;99.90;;;;;;4993243;28;20061;-71
2021/09/11 05:28:49;;;;;;;37.87;23.37;;;16.90;99.90;;;;;;4992930;28;20054;-71
2021/09/11 05:31:15;;;;;;;39.30;22.83;;;16.80;99.90;;;;;;4992174;28;20050;-71
2021/09/11 05:33:40;;;;;;;38.40;22.93;;;16.80;99.90;;;;;;4993275;28;20045;-71
2021/09/11 05:36:06;;;;;;;35.67;23.53;;;16.80;99.90;;;;;;4991125;28;20553;-71
2021/09/11 05:38:32;;;;;;;37.90;23.73;;;16.70;99.90;;;;;;4993347;28;20058;-71
2021/09/11 05:40:57;;;;;;;36.27;24.90;;;16.70;99.90;;;;;;4992490;28;20047;-70
2021/09/11 05:43:24;;;;;;;45.23;24.93;;;16.70;99.90;;;;;;4992698;28;20042;-70
2021/09/11 05:45:50;;;;;;;43.03;26.70;;;16.70;99.90;;;;;;4992648;28;20167;-71
2021/09/11 05:48:15;;;;;;;43.53;28.23;;;16.70;99.90;;;;;;4991928;28;20590;-71
